Hlavní strana
METAR-TAF:

METAR-TAF

Letiště :

Kramfors, Švédsko

zeměpisná šířka: 63-03N, zeměpisná délka: 017-46E, výška: 10 m

Aktuální stav počasí

Zpráva byla vytvořena před 21 minutami, v 10:50 UTC
Jižní vítr 7 kt
Teplota 2°C
Vlhkost vzduchu 80%
Tlak 1003 hPa
Viditelnost 10 km a více

METAR: ESNK 181050Z AUTO 18007KT 9999 NCD 02/M01 Q1003

Čas: 12:11 (11:11 UTC)

Předpověď počasí

Zpráva byla vytvořena před 5 hodinami a 41 minutami, v 05:30 UTC
Předpověď platná od 18 v 06 UTC do 18 v 10 UTC
Jihojihovýchodní vítr 5 kt
Viditelnost 10 km a více
Žádná oblačnost pod 1500 m, nevyskytují se cumulonimby.

TAF: ESNK 180530Z 1806/1810 16005KT CAVOK

Stav a předpovědi počasí z více než 4 000 letišť (zprávy METAR a TAF).

Červené a žluté tečky na mapě představují dostupné meteorologické stanice.

Když kurzor umístíte na tečku, zobrazí se název stanice.

Pak kliknutím zobrazíte stav a předpověď počasí.

Chcete-li změnit mapu, kliknutím na zelené tlačítko se znaménkem +mapu přiblížíte, kliknutím na zelené tlačítko se znaménkem – mapu oddálíte a kliknutím na zelené šipky přejdete na sousední mapy.


METAR-TAF: